sensor_id;sensor_type;location;lat;lon;timestamp;temperature;humidity
78516;SHT31;67815;51.990;5.688;2023-07-13T00:02:08;20.8;57.8
78516;SHT31;67815;51.990;5.688;2023-07-13T00:04:37;20.8;58.0
78516;SHT31;67815;51.990;5.688;2023-07-13T00:07:07;20.8;58.0
78516;SHT31;67815;51.990;5.688;2023-07-13T00:09:37;20.8;58.6
78516;SHT31;67815;51.990;5.688;2023-07-13T00:12:25;20.8;56.9
78516;SHT31;67815;51.990;5.688;2023-07-13T00:14:55;20.8;57.2
78516;SHT31;67815;51.990;5.688;2023-07-13T00:17:26;20.7;57.5
78516;SHT31;67815;51.990;5.688;2023-07-13T00:19:57;20.7;56.8
78516;SHT31;67815;51.990;5.688;2023-07-13T00:22:27;20.7;56.6
78516;SHT31;67815;51.990;5.688;2023-07-13T00:24:57;20.7;57.2
78516;SHT31;67815;51.990;5.688;2023-07-13T00:27:26;20.7;56.8
78516;SHT31;67815;51.990;5.688;2023-07-13T00:29:59;20.7;56.9
78516;SHT31;67815;51.990;5.688;2023-07-13T00:32:30;20.6;56.8
78516;SHT31;67815;51.990;5.688;2023-07-13T00:35:00;20.6;57.3
78516;SHT31;67815;51.990;5.688;2023-07-13T00:37:32;20.6;56.8
78516;SHT31;67815;51.990;5.688;2023-07-13T00:40:03;20.6;57.4
78516;SHT31;67815;51.990;5.688;2023-07-13T00:42:34;20.5;57.8
78516;SHT31;67815;51.990;5.688;2023-07-13T00:46:02;20.5;57.5
78516;SHT31;67815;51.990;5.688;2023-07-13T00:47:42;20.5;58.4
78516;SHT31;67815;51.990;5.688;2023-07-13T00:50:15;20.5;57.9
78516;SHT31;67815;51.990;5.688;2023-07-13T00:52:51;20.5;57.5
78516;SHT31;67815;51.990;5.688;2023-07-13T00:55:22;20.4;58.0
78516;SHT31;67815;51.990;5.688;2023-07-13T00:57:52;20.4;57.5
78516;SHT31;67815;51.990;5.688;2023-07-13T01:00:23;20.4;57.2
78516;SHT31;67815;51.990;5.688;2023-07-13T01:02:55;20.4;58.3
78516;SHT31;67815;51.990;5.688;2023-07-13T01:05:26;20.3;57.9
78516;SHT31;67815;51.990;5.688;2023-07-13T01:07:55;20.3;58.5
78516;SHT31;67815;51.990;5.688;2023-07-13T01:10:26;20.3;58.4
78516;SHT31;67815;51.990;5.688;2023-07-13T01:12:58;20.3;58.5
78516;SHT31;67815;51.990;5.688;2023-07-13T01:15:41;20.3;58.4
78516;SHT31;67815;51.990;5.688;2023-07-13T01:18:15;20.3;58.6
78516;SHT31;67815;51.990;5.688;2023-07-13T01:20:53;20.2;58.8
78516;SHT31;67815;51.990;5.688;2023-07-13T01:23:26;20.2;59.1
78516;SHT31;67815;51.990;5.688;2023-07-13T01:25:57;20.2;59.2
78516;SHT31;67815;51.990;5.688;2023-07-13T01:28:28;20.2;59.2
78516;SHT31;67815;51.990;5.688;2023-07-13T01:30:58;20.2;59.4
78516;SHT31;67815;51.990;5.688;2023-07-13T01:33:28;20.1;59.4
78516;SHT31;67815;51.990;5.688;2023-07-13T01:35:58;20.1;58.8
78516;SHT31;67815;51.990;5.688;2023-07-13T01:38:30;20.1;59.4
78516;SHT31;67815;51.990;5.688;2023-07-13T01:40:59;20.1;59.0
78516;SHT31;67815;51.990;5.688;2023-07-13T01:43:29;20.0;59.7
78516;SHT31;67815;51.990;5.688;2023-07-13T01:46:00;20.0;59.8
78516;SHT31;67815;51.990;5.688;2023-07-13T01:48:29;20.0;59.7
78516;SHT31;67815;51.990;5.688;2023-07-13T01:50:59;19.9;59.2
78516;SHT31;67815;51.990;5.688;2023-07-13T01:53:28;19.9;59.5
78516;SHT31;67815;51.990;5.688;2023-07-13T01:55:58;19.9;59.8
78516;SHT31;67815;51.990;5.688;2023-07-13T01:58:27;19.8;59.5
78516;SHT31;67815;51.990;5.688;2023-07-13T02:00:57;19.8;59.8
78516;SHT31;67815;51.990;5.688;2023-07-13T02:03:26;19.8;59.3
78516;SHT31;67815;51.990;5.688;2023-07-13T02:05:56;19.8;60.0
78516;SHT31;67815;51.990;5.688;2023-07-13T02:08:25;19.7;59.9
78516;SHT31;67815;51.990;5.688;2023-07-13T02:10:55;19.7;59.5
78516;SHT31;67815;51.990;5.688;2023-07-13T02:13:24;19.7;60.2
78516;SHT31;67815;51.990;5.688;2023-07-13T02:15:54;19.7;60.4
78516;SHT31;67815;51.990;5.688;2023-07-13T02:18:24;19.7;60.3
78516;SHT31;67815;51.990;5.688;2023-07-13T02:20:53;19.6;60.7
78516;SHT31;67815;51.990;5.688;2023-07-13T02:23:24;19.6;60.6
78516;SHT31;67815;51.990;5.688;2023-07-13T02:25:56;19.6;60.5
78516;SHT31;67815;51.990;5.688;2023-07-13T02:28:28;19.6;60.2
78516;SHT31;67815;51.990;5.688;2023-07-13T02:31:08;19.6;60.5
78516;SHT31;67815;51.990;5.688;2023-07-13T02:33:38;19.6;60.5
78516;SHT31;67815;51.990;5.688;2023-07-13T02:36:08;19.5;60.8
78516;SHT31;67815;51.990;5.688;2023-07-13T02:38:38;19.5;60.7
78516;SHT31;67815;51.990;5.688;2023-07-13T02:41:08;19.5;61.0
78516;SHT31;67815;51.990;5.688;2023-07-13T02:43:40;19.4;61.0
78516;SHT31;67815;51.990;5.688;2023-07-13T02:46:09;19.4;61.0
78516;SHT31;67815;51.990;5.688;2023-07-13T02:48:40;19.4;61.1
78516;SHT31;67815;51.990;5.688;2023-07-13T02:51:09;19.4;61.3
78516;SHT31;67815;51.990;5.688;2023-07-13T02:53:39;19.4;61.5
78516;SHT31;67815;51.990;5.688;2023-07-13T02:56:08;19.4;61.2
78516;SHT31;67815;51.990;5.688;2023-07-13T02:58:38;19.4;61.3
78516;SHT31;67815;51.990;5.688;2023-07-13T03:01:10;19.4;61.5
78516;SHT31;67815;51.990;5.688;2023-07-13T03:03:39;19.3;61.6
78516;SHT31;67815;51.990;5.688;2023-07-13T03:06:09;19.3;61.3
78516;SHT31;67815;51.990;5.688;2023-07-13T03:08:39;19.3;61.7
78516;SHT31;67815;51.990;5.688;2023-07-13T03:11:11;19.3;62.0
78516;SHT31;67815;51.990;5.688;2023-07-13T03:13:42;19.3;61.9
78516;SHT31;67815;51.990;5.688;2023-07-13T03:16:12;19.3;62.1
78516;SHT31;67815;51.990;5.688;2023-07-13T03:18:43;19.3;62.4
78516;SHT31;67815;51.990;5.688;2023-07-13T03:21:13;19.3;62.2
78516;SHT31;67815;51.990;5.688;2023-07-13T03:23:46;19.2;62.4
78516;SHT31;67815;51.990;5.688;2023-07-13T03:26:19;19.2;62.4
78516;SHT31;67815;51.990;5.688;2023-07-13T03:28:51;19.2;62.6
78516;SHT31;67815;51.990;5.688;2023-07-13T03:31:24;19.2;62.6
78516;SHT31;67815;51.990;5.688;2023-07-13T03:33:55;19.2;62.5
78516;SHT31;67815;51.990;5.688;2023-07-13T03:36:27;19.1;62.6
78516;SHT31;67815;51.990;5.688;2023-07-13T03:38:59;19.1;62.6
78516;SHT31;67815;51.990;5.688;2023-07-13T03:41:30;19.1;62.7
78516;SHT31;67815;51.990;5.688;2023-07-13T03:44:00;19.0;62.7
78516;SHT31;67815;51.990;5.688;2023-07-13T03:46:29;19.0;62.9
78516;SHT31;67815;51.990;5.688;2023-07-13T03:49:01;19.0;62.9
78516;SHT31;67815;51.990;5.688;2023-07-13T03:51:31;19.0;63.0
78516;SHT31;67815;51.990;5.688;2023-07-13T03:54:01;18.9;63.2
78516;SHT31;67815;51.990;5.688;2023-07-13T03:56:32;18.9;63.5
78516;SHT31;67815;51.990;5.688;2023-07-13T03:59:02;18.9;63.6
78516;SHT31;67815;51.990;5.688;2023-07-13T04:01:32;18.9;63.7
78516;SHT31;67815;51.990;5.688;2023-07-13T04:04:01;18.8;63.7
78516;SHT31;67815;51.990;5.688;2023-07-13T04:06:32;18.8;64.0
78516;SHT31;67815;51.990;5.688;2023-07-13T04:09:04;18.8;63.9
78516;SHT31;67815;51.990;5.688;2023-07-13T04:11:35;18.8;64.0
78516;SHT31;67815;51.990;5.688;2023-07-13T04:14:05;18.8;64.1
78516;SHT31;67815;51.990;5.688;2023-07-13T04:16:35;18.8;64.1
78516;SHT31;67815;51.990;5.688;2023-07-13T04:19:07;18.8;64.4
78516;SHT31;67815;51.990;5.688;2023-07-13T04:21:37;18.8;64.6
78516;SHT31;67815;51.990;5.688;2023-07-13T04:24:07;18.8;64.3
78516;SHT31;67815;51.990;5.688;2023-07-13T04:26:39;18.8;64.6
78516;SHT31;67815;51.990;5.688;2023-07-13T04:29:08;18.8;64.4
78516;SHT31;67815;51.990;5.688;2023-07-13T04:31:38;18.9;64.7
78516;SHT31;67815;51.990;5.688;2023-07-13T04:34:07;18.9;64.6
78516;SHT31;67815;51.990;5.688;2023-07-13T04:36:39;18.9;64.8
78516;SHT31;67815;51.990;5.688;2023-07-13T04:39:08;18.9;64.9
78516;SHT31;67815;51.990;5.688;2023-07-13T04:41:38;18.9;64.8
78516;SHT31;67815;51.990;5.688;2023-07-13T04:44:08;18.9;65.0
78516;SHT31;67815;51.990;5.688;2023-07-13T04:46:40;18.9;65.1
78516;SHT31;67815;51.990;5.688;2023-07-13T04:49:11;19.0;64.7
78516;SHT31;67815;51.990;5.688;2023-07-13T04:51:40;19.0;65.0
78516;SHT31;67815;51.990;5.688;2023-07-13T04:54:10;19.0;65.0
78516;SHT31;67815;51.990;5.688;2023-07-13T04:56:39;19.0;65.2
78516;SHT31;67815;51.990;5.688;2023-07-13T04:59:09;19.0;64.7
78516;SHT31;67815;51.990;5.688;2023-07-13T05:01:39;19.0;64.6
78516;SHT31;67815;51.990;5.688;2023-07-13T05:04:11;19.0;64.6
78516;SHT31;67815;51.990;5.688;2023-07-13T05:06:40;19.1;65.0
78516;SHT31;67815;51.990;5.688;2023-07-13T05:09:10;19.1;64.9
78516;SHT31;67815;51.990;5.688;2023-07-13T05:11:42;19.1;65.2
78516;SHT31;67815;51.990;5.688;2023-07-13T05:14:12;19.1;65.2
78516;SHT31;67815;51.990;5.688;2023-07-13T05:16:43;19.1;65.2
78516;SHT31;67815;51.990;5.688;2023-07-13T05:19:13;19.1;65.4
78516;SHT31;67815;51.990;5.688;2023-07-13T05:21:43;19.1;65.7
78516;SHT31;67815;51.990;5.688;2023-07-13T05:24:12;19.1;65.8
78516;SHT31;67815;51.990;5.688;2023-07-13T05:26:42;19.1;65.8
78516;SHT31;67815;51.990;5.688;2023-07-13T05:29:11;19.1;66.4
78516;SHT31;67815;51.990;5.688;2023-07-13T05:31:41;19.1;66.1
78516;SHT31;67815;51.990;5.688;2023-07-13T05:34:11;19.1;65.6
78516;SHT31;67815;51.990;5.688;2023-07-13T05:36:40;19.2;66.7
78516;SHT31;67815;51.990;5.688;2023-07-13T05:39:10;19.2;65.9
78516;SHT31;67815;51.990;5.688;2023-07-13T05:41:41;19.2;66.3
78516;SHT31;67815;51.990;5.688;2023-07-13T05:44:11;19.2;66.4
78516;SHT31;67815;51.990;5.688;2023-07-13T05:46:40;19.2;66.4
78516;SHT31;67815;51.990;5.688;2023-07-13T05:49:10;19.2;66.8
78516;SHT31;67815;51.990;5.688;2023-07-13T05:51:40;19.2;66.7
78516;SHT31;67815;51.990;5.688;2023-07-13T05:54:10;19.2;67.2
78516;SHT31;67815;51.990;5.688;2023-07-13T05:56:39;19.2;67.2
78516;SHT31;67815;51.990;5.688;2023-07-13T05:59:09;19.3;67.4
78516;SHT31;67815;51.990;5.688;2023-07-13T06:01:38;19.3;67.1
78516;SHT31;67815;51.990;5.688;2023-07-13T06:04:08;19.3;67.2
78516;SHT31;67815;51.990;5.688;2023-07-13T06:06:38;19.3;67.3
78516;SHT31;67815;51.990;5.688;2023-07-13T06:09:07;19.3;67.2
78516;SHT31;67815;51.990;5.688;2023-07-13T06:11:37;19.4;67.2
78516;SHT31;67815;51.990;5.688;2023-07-13T06:14:06;19.4;67.2
78516;SHT31;67815;51.990;5.688;2023-07-13T06:16:36;19.4;67.7
78516;SHT31;67815;51.990;5.688;2023-07-13T06:19:05;19.4;67.8
78516;SHT31;67815;51.990;5.688;2023-07-13T06:21:35;19.4;67.7
78516;SHT31;67815;51.990;5.688;2023-07-13T06:24:05;19.5;67.7
78516;SHT31;67815;51.990;5.688;2023-07-13T06:26:35;19.5;67.7
78516;SHT31;67815;51.990;5.688;2023-07-13T06:29:05;19.5;67.9
78516;SHT31;67815;51.990;5.688;2023-07-13T06:31:34;19.5;68.1
78516;SHT31;67815;51.990;5.688;2023-07-13T06:34:04;19.6;68.7
78516;SHT31;67815;51.990;5.688;2023-07-13T06:36:34;19.6;68.2
78516;SHT31;67815;51.990;5.688;2023-07-13T06:39:07;19.6;68.3
78516;SHT31;67815;51.990;5.688;2023-07-13T06:41:38;19.7;68.2
78516;SHT31;67815;51.990;5.688;2023-07-13T06:44:08;19.7;68.6
78516;SHT31;67815;51.990;5.688;2023-07-13T06:46:38;19.7;68.2
78516;SHT31;67815;51.990;5.688;2023-07-13T06:49:08;19.8;68.3
78516;SHT31;67815;51.990;5.688;2023-07-13T06:51:40;19.8;68.1
78516;SHT31;67815;51.990;5.688;2023-07-13T06:54:09;19.8;67.9
78516;SHT31;67815;51.990;5.688;2023-07-13T06:56:39;19.8;67.8
78516;SHT31;67815;51.990;5.688;2023-07-13T06:59:09;19.9;68.1
78516;SHT31;67815;51.990;5.688;2023-07-13T07:01:41;19.9;69.0
78516;SHT31;67815;51.990;5.688;2023-07-13T07:04:10;19.9;68.6
78516;SHT31;67815;51.990;5.688;2023-07-13T07:06:40;19.9;68.8
78516;SHT31;67815;51.990;5.688;2023-07-13T07:09:09;20.0;67.6
78516;SHT31;67815;51.990;5.688;2023-07-13T07:11:39;20.0;67.5
78516;SHT31;67815;51.990;5.688;2023-07-13T07:14:09;20.0;67.4
78516;SHT31;67815;51.990;5.688;2023-07-13T07:16:39;20.0;67.0
78516;SHT31;67815;51.990;5.688;2023-07-13T07:19:08;20.0;67.8
78516;SHT31;67815;51.990;5.688;2023-07-13T07:21:38;20.1;68.3
78516;SHT31;67815;51.990;5.688;2023-07-13T07:24:08;20.1;67.6
78516;SHT31;67815;51.990;5.688;2023-07-13T07:26:37;20.1;67.5
78516;SHT31;67815;51.990;5.688;2023-07-13T07:29:07;20.1;66.9
78516;SHT31;67815;51.990;5.688;2023-07-13T07:31:37;20.2;67.0
78516;SHT31;67815;51.990;5.688;2023-07-13T07:34:07;20.2;67.1
78516;SHT31;67815;51.990;5.688;2023-07-13T07:36:36;20.2;67.6
78516;SHT31;67815;51.990;5.688;2023-07-13T07:39:06;20.2;66.8
78516;SHT31;67815;51.990;5.688;2023-07-13T07:41:35;20.3;67.0
78516;SHT31;67815;51.990;5.688;2023-07-13T07:44:05;20.3;67.7
78516;SHT31;67815;51.990;5.688;2023-07-13T07:46:37;20.3;66.9
78516;SHT31;67815;51.990;5.688;2023-07-13T07:49:08;20.3;67.6
78516;SHT31;67815;51.990;5.688;2023-07-13T07:51:38;20.3;67.4
78516;SHT31;67815;51.990;5.688;2023-07-13T07:54:07;20.4;67.1
78516;SHT31;67815;51.990;5.688;2023-07-13T07:56:37;20.4;67.1
78516;SHT31;67815;51.990;5.688;2023-07-13T07:59:06;20.4;66.8
78516;SHT31;67815;51.990;5.688;2023-07-13T08:01:36;20.4;66.4
78516;SHT31;67815;51.990;5.688;2023-07-13T08:04:06;20.5;66.7
78516;SHT31;67815;51.990;5.688;2023-07-13T08:06:36;20.5;65.6
78516;SHT31;67815;51.990;5.688;2023-07-13T08:09:06;20.5;66.2
78516;SHT31;67815;51.990;5.688;2023-07-13T08:11:36;20.6;65.5
78516;SHT31;67815;51.990;5.688;2023-07-13T08:14:06;20.6;65.7
78516;SHT31;67815;51.990;5.688;2023-07-13T08:16:37;20.6;66.3
78516;SHT31;67815;51.990;5.688;2023-07-13T08:19:07;20.7;66.2
78516;SHT31;67815;51.990;5.688;2023-07-13T08:21:37;20.7;65.9
78516;SHT31;67815;51.990;5.688;2023-07-13T08:24:07;20.7;66.6
78516;SHT31;67815;51.990;5.688;2023-07-13T08:26:36;20.8;66.3
78516;SHT31;67815;51.990;5.688;2023-07-13T08:29:06;20.8;64.9
78516;SHT31;67815;51.990;5.688;2023-07-13T08:31:36;20.8;64.5
78516;SHT31;67815;51.990;5.688;2023-07-13T08:34:06;20.9;64.9
78516;SHT31;67815;51.990;5.688;2023-07-13T08:36:36;20.9;64.8
78516;SHT31;67815;51.990;5.688;2023-07-13T08:39:06;20.9;64.7
78516;SHT31;67815;51.990;5.688;2023-07-13T08:41:37;20.9;65.4
78516;SHT31;67815;51.990;5.688;2023-07-13T08:44:15;20.9;65.7
78516;SHT31;67815;51.990;5.688;2023-07-13T08:46:51;21.0;64.0
78516;SHT31;67815;51.990;5.688;2023-07-13T08:49:23;21.0;63.0
78516;SHT31;67815;51.990;5.688;2023-07-13T08:51:59;21.0;63.7
78516;SHT31;67815;51.990;5.688;2023-07-13T08:54:34;21.1;62.6
78516;SHT31;67815;51.990;5.688;2023-07-13T08:57:14;21.1;61.7
78516;SHT31;67815;51.990;5.688;2023-07-13T08:59:45;21.2;62.8
78516;SHT31;67815;51.990;5.688;2023-07-13T09:02:25;21.2;62.2
78516;SHT31;67815;51.990;5.688;2023-07-13T09:05:00;21.3;60.5
78516;SHT31;67815;51.990;5.688;2023-07-13T09:07:45;21.3;61.3
78516;SHT31;67815;51.990;5.688;2023-07-13T09:10:21;21.4;59.9
78516;SHT31;67815;51.990;5.688;2023-07-13T09:13:00;21.4;60.0
78516;SHT31;67815;51.990;5.688;2023-07-13T09:15:40;21.4;59.4
78516;SHT31;67815;51.990;5.688;2023-07-13T09:18:21;21.4;59.0
78516;SHT31;67815;51.990;5.688;2023-07-13T09:20:57;21.4;60.0
78516;SHT31;67815;51.990;5.688;2023-07-13T09:23:30;21.4;60.8
78516;SHT31;67815;51.990;5.688;2023-07-13T09:26:06;21.4;60.9
78516;SHT31;67815;51.990;5.688;2023-07-13T09:28:43;21.4;59.8
78516;SHT31;67815;51.990;5.688;2023-07-13T09:31:16;21.4;61.2
78516;SHT31;67815;51.990;5.688;2023-07-13T09:33:48;21.4;62.8
78516;SHT31;67815;51.990;5.688;2023-07-13T09:36:22;21.4;63.5
78516;SHT31;67815;51.990;5.688;2023-07-13T09:38:59;21.4;62.4
78516;SHT31;67815;51.990;5.688;2023-07-13T09:41:43;21.4;63.3
78516;SHT31;67815;51.990;5.688;2023-07-13T09:44:18;21.4;63.6
78516;SHT31;67815;51.990;5.688;2023-07-13T09:46:55;21.4;62.5
78516;SHT31;67815;51.990;5.688;2023-07-13T09:49:26;21.3;63.0
78516;SHT31;67815;51.990;5.688;2023-07-13T09:52:02;21.3;63.3
78516;SHT31;67815;51.990;5.688;2023-07-13T09:54:34;21.4;61.9
78516;SHT31;67815;51.990;5.688;2023-07-13T09:57:14;21.4;62.7
78516;SHT31;67815;51.990;5.688;2023-07-13T09:59:47;21.5;62.9
78516;SHT31;67815;51.990;5.688;2023-07-13T10:02:25;21.5;62.8
78516;SHT31;67815;51.990;5.688;2023-07-13T10:04:59;21.6;61.7
78516;SHT31;67815;51.990;5.688;2023-07-13T10:07:32;21.7;59.9
78516;SHT31;67815;51.990;5.688;2023-07-13T10:10:02;21.8;59.0
78516;SHT31;67815;51.990;5.688;2023-07-13T10:12:38;21.8;60.8
78516;SHT31;67815;51.990;5.688;2023-07-13T10:15:18;21.8;59.7
78516;SHT31;67815;51.990;5.688;2023-07-13T10:17:51;21.9;60.2
78516;SHT31;67815;51.990;5.688;2023-07-13T10:20:21;21.9;60.3
78516;SHT31;67815;51.990;5.688;2023-07-13T10:22:56;21.9;60.2
78516;SHT31;67815;51.990;5.688;2023-07-13T10:25:32;22.0;61.1
78516;SHT31;67815;51.990;5.688;2023-07-13T10:28:10;22.0;61.4
78516;SHT31;67815;51.990;5.688;2023-07-13T10:30:45;22.0;61.1
78516;SHT31;67815;51.990;5.688;2023-07-13T10:33:15;22.0;61.6
78516;SHT31;67815;51.990;5.688;2023-07-13T10:35:45;22.0;61.8
78516;SHT31;67815;51.990;5.688;2023-07-13T10:38:20;22.1;62.5
78516;SHT31;67815;51.990;5.688;2023-07-13T10:40:58;22.1;60.7
78516;SHT31;67815;51.990;5.688;2023-07-13T10:43:34;22.1;60.8
78516;SHT31;67815;51.990;5.688;2023-07-13T10:46:08;22.1;59.5
78516;SHT31;67815;51.990;5.688;2023-07-13T10:48:43;22.1;59.0
78516;SHT31;67815;51.990;5.688;2023-07-13T10:51:17;22.1;58.7
78516;SHT31;67815;51.990;5.688;2023-07-13T10:54:16;22.1;56.0
78516;SHT31;67815;51.990;5.688;2023-07-13T10:56:46;22.1;55.2
78516;SHT31;67815;51.990;5.688;2023-07-13T10:59:18;22.1;57.3
78516;SHT31;67815;51.990;5.688;2023-07-13T11:01:54;22.1;56.4
78516;SHT31;67815;51.990;5.688;2023-07-13T11:04:25;22.2;59.2
78516;SHT31;67815;51.990;5.688;2023-07-13T11:07:00;22.2;60.4
78516;SHT31;67815;51.990;5.688;2023-07-13T11:09:37;22.1;61.2
78516;SHT31;67815;51.990;5.688;2023-07-13T11:12:29;22.1;63.8
78516;SHT31;67815;51.990;5.688;2023-07-13T11:15:06;22.1;64.7
78516;SHT31;67815;51.990;5.688;2023-07-13T11:17:50;22.1;63.9
78516;SHT31;67815;51.990;5.688;2023-07-13T11:20:23;22.1;61.9
78516;SHT31;67815;51.990;5.688;2023-07-13T11:23:18;22.1;62.9
78516;SHT31;67815;51.990;5.688;2023-07-13T11:25:46;22.1;63.9
78516;SHT31;67815;51.990;5.688;2023-07-13T11:28:24;22.2;62.8
78516;SHT31;67815;51.990;5.688;2023-07-13T11:31:11;22.2;64.2
78516;SHT31;67815;51.990;5.688;2023-07-13T11:33:50;22.3;61.0
78516;SHT31;67815;51.990;5.688;2023-07-13T11:36:23;22.4;60.2
78516;SHT31;67815;51.990;5.688;2023-07-13T11:39:00;22.5;60.0
78516;SHT31;67815;51.990;5.688;2023-07-13T11:41:35;22.6;59.4
78516;SHT31;67815;51.990;5.688;2023-07-13T11:44:12;22.7;58.4
78516;SHT31;67815;51.990;5.688;2023-07-13T11:46:47;22.7;57.0
78516;SHT31;67815;51.990;5.688;2023-07-13T11:49:20;22.8;56.9
78516;SHT31;67815;51.990;5.688;2023-07-13T11:51:51;22.8;56.5
78516;SHT31;67815;51.990;5.688;2023-07-13T11:54:27;22.8;56.7
78516;SHT31;67815;51.990;5.688;2023-07-13T11:57:02;22.8;60.5
78516;SHT31;67815;51.990;5.688;2023-07-13T11:59:40;22.8;58.7
78516;SHT31;67815;51.990;5.688;2023-07-13T12:02:17;22.8;59.0
78516;SHT31;67815;51.990;5.688;2023-07-13T12:04:49;22.9;55.7
78516;SHT31;67815;51.990;5.688;2023-07-13T12:07:20;22.9;55.2
78516;SHT31;67815;51.990;5.688;2023-07-13T12:09:49;23.0;55.4
78516;SHT31;67815;51.990;5.688;2023-07-13T12:12:22;23.0;53.4
78516;SHT31;67815;51.990;5.688;2023-07-13T12:14:53;23.1;53.9
78516;SHT31;67815;51.990;5.688;2023-07-13T12:17:24;23.1;53.6
78516;SHT31;67815;51.990;5.688;2023-07-13T12:19:55;23.2;54.5
78516;SHT31;67815;51.990;5.688;2023-07-13T12:22:26;23.2;54.5
78516;SHT31;67815;51.990;5.688;2023-07-13T12:24:56;23.2;55.3
78516;SHT31;67815;51.990;5.688;2023-07-13T12:27:28;23.2;56.3
78516;SHT31;67815;51.990;5.688;2023-07-13T12:30:02;23.3;56.1
78516;SHT31;67815;51.990;5.688;2023-07-13T12:32:32;23.3;54.2
78516;SHT31;67815;51.990;5.688;2023-07-13T12:35:16;23.4;54.7
78516;SHT31;67815;51.990;5.688;2023-07-13T12:37:46;23.5;52.5
78516;SHT31;67815;51.990;5.688;2023-07-13T12:40:18;23.5;51.6
78516;SHT31;67815;51.990;5.688;2023-07-13T12:42:51;23.6;54.7
78516;SHT31;67815;51.990;5.688;2023-07-13T12:45:25;23.6;51.8
78516;SHT31;67815;51.990;5.688;2023-07-13T12:47:57;23.7;50.6
78516;SHT31;67815;51.990;5.688;2023-07-13T12:50:39;23.7;51.7
78516;SHT31;67815;51.990;5.688;2023-07-13T12:53:13;23.8;50.8
78516;SHT31;67815;51.990;5.688;2023-07-13T12:55:48;23.8;50.1
78516;SHT31;67815;51.990;5.688;2023-07-13T12:58:27;23.9;48.6
78516;SHT31;67815;51.990;5.688;2023-07-13T13:00:59;23.9;49.0
78516;SHT31;67815;51.990;5.688;2023-07-13T13:03:31;24.0;49.5
78516;SHT31;67815;51.990;5.688;2023-07-13T13:06:06;24.0;50.0
78516;SHT31;67815;51.990;5.688;2023-07-13T13:08:37;24.0;49.4
78516;SHT31;67815;51.990;5.688;2023-07-13T13:11:09;24.1;48.1
78516;SHT31;67815;51.990;5.688;2023-07-13T13:13:38;24.1;50.4
78516;SHT31;67815;51.990;5.688;2023-07-13T13:16:14;24.1;48.8
78516;SHT31;67815;51.990;5.688;2023-07-13T13:18:46;24.2;47.9
78516;SHT31;67815;51.990;5.688;2023-07-13T13:21:18;24.2;47.0
78516;SHT31;67815;51.990;5.688;2023-07-13T13:23:48;24.2;49.2
78516;SHT31;67815;51.990;5.688;2023-07-13T13:26:23;24.2;48.1
78516;SHT31;67815;51.990;5.688;2023-07-13T13:28:53;24.3;47.5
78516;SHT31;67815;51.990;5.688;2023-07-13T13:31:23;24.3;47.9
78516;SHT31;67815;51.990;5.688;2023-07-13T13:33:52;24.4;48.5
78516;SHT31;67815;51.990;5.688;2023-07-13T13:36:23;24.4;48.0
78516;SHT31;67815;51.990;5.688;2023-07-13T13:38:53;24.5;50.3
78516;SHT31;67815;51.990;5.688;2023-07-13T13:41:22;24.5;50.8
78516;SHT31;67815;51.990;5.688;2023-07-13T13:43:52;24.6;49.5
78516;SHT31;67815;51.990;5.688;2023-07-13T13:46:24;24.6;47.5
78516;SHT31;67815;51.990;5.688;2023-07-13T13:48:56;24.7;47.0
78516;SHT31;67815;51.990;5.688;2023-07-13T13:51:26;24.8;47.2
78516;SHT31;67815;51.990;5.688;2023-07-13T13:53:56;24.8;46.9
78516;SHT31;67815;51.990;5.688;2023-07-13T13:56:29;24.8;46.7
78516;SHT31;67815;51.990;5.688;2023-07-13T13:58:58;24.8;45.6
78516;SHT31;67815;51.990;5.688;2023-07-13T14:01:31;24.8;48.3
78516;SHT31;67815;51.990;5.688;2023-07-13T14:04:00;24.8;47.0
78516;SHT31;67815;51.990;5.688;2023-07-13T14:06:30;24.8;48.4
78516;SHT31;67815;51.990;5.688;2023-07-13T14:09:02;24.8;48.4
78516;SHT31;67815;51.990;5.688;2023-07-13T14:11:32;24.8;47.9
78516;SHT31;67815;51.990;5.688;2023-07-13T14:14:04;24.8;45.9
78516;SHT31;67815;51.990;5.688;2023-07-13T14:16:34;24.8;46.3
78516;SHT31;67815;51.990;5.688;2023-07-13T14:19:04;24.8;47.8
78516;SHT31;67815;51.990;5.688;2023-07-13T14:21:34;24.8;46.5
78516;SHT31;67815;51.990;5.688;2023-07-13T14:24:07;24.8;47.1
78516;SHT31;67815;51.990;5.688;2023-07-13T14:26:40;24.9;47.6
78516;SHT31;67815;51.990;5.688;2023-07-13T14:29:15;24.9;45.9
78516;SHT31;67815;51.990;5.688;2023-07-13T14:31:46;24.9;45.4
78516;SHT31;67815;51.990;5.688;2023-07-13T14:34:16;25.0;46.4
78516;SHT31;67815;51.990;5.688;2023-07-13T14:36:48;25.0;46.2
78516;SHT31;67815;51.990;5.688;2023-07-13T14:39:20;25.0;47.0
78516;SHT31;67815;51.990;5.688;2023-07-13T14:41:54;25.0;46.7
78516;SHT31;67815;51.990;5.688;2023-07-13T14:44:27;25.1;45.6
78516;SHT31;67815;51.990;5.688;2023-07-13T14:47:03;25.1;45.2
78516;SHT31;67815;51.990;5.688;2023-07-13T14:49:37;25.0;44.2
78516;SHT31;67815;51.990;5.688;2023-07-13T14:52:11;25.0;44.5
78516;SHT31;67815;51.990;5.688;2023-07-13T14:54:42;25.0;44.7
78516;SHT31;67815;51.990;5.688;2023-07-13T14:57:15;24.9;44.4
78516;SHT31;67815;51.990;5.688;2023-07-13T14:59:47;24.8;44.3
78516;SHT31;67815;51.990;5.688;2023-07-13T15:02:26;24.8;44.7
78516;SHT31;67815;51.990;5.688;2023-07-13T15:04:57;24.7;43.6
78516;SHT31;67815;51.990;5.688;2023-07-13T15:07:27;24.7;44.7
78516;SHT31;67815;51.990;5.688;2023-07-13T15:09:57;24.7;45.1
78516;SHT31;67815;51.990;5.688;2023-07-13T15:12:26;24.6;45.7
78516;SHT31;67815;51.990;5.688;2023-07-13T15:14:56;24.6;46.6
78516;SHT31;67815;51.990;5.688;2023-07-13T15:17:32;24.6;44.9
78516;SHT31;67815;51.990;5.688;2023-07-13T15:20:15;24.6;45.0
78516;SHT31;67815;51.990;5.688;2023-07-13T15:22:41;24.5;45.6
78516;SHT31;67815;51.990;5.688;2023-07-13T15:25:16;24.5;45.5
78516;SHT31;67815;51.990;5.688;2023-07-13T15:27:46;24.5;46.2
78516;SHT31;67815;51.990;5.688;2023-07-13T15:30:16;24.5;45.9
78516;SHT31;67815;51.990;5.688;2023-07-13T15:32:47;24.5;45.7
78516;SHT31;67815;51.990;5.688;2023-07-13T15:35:19;24.5;45.9
78516;SHT31;67815;51.990;5.688;2023-07-13T15:37:50;24.4;46.1
78516;SHT31;67815;51.990;5.688;2023-07-13T15:40:20;24.4;45.8
78516;SHT31;67815;51.990;5.688;2023-07-13T15:42:51;24.4;46.8
78516;SHT31;67815;51.990;5.688;2023-07-13T15:45:23;24.4;47.1
78516;SHT31;67815;51.990;5.688;2023-07-13T15:47:54;24.4;47.3
78516;SHT31;67815;51.990;5.688;2023-07-13T15:50:24;24.4;47.3
78516;SHT31;67815;51.990;5.688;2023-07-13T15:52:59;24.4;48.3
78516;SHT31;67815;51.990;5.688;2023-07-13T15:55:37;24.4;47.5
78516;SHT31;67815;51.990;5.688;2023-07-13T15:58:04;24.4;48.5
78516;SHT31;67815;51.990;5.688;2023-07-13T16:00:35;24.4;46.9
78516;SHT31;67815;51.990;5.688;2023-07-13T16:03:06;24.5;46.2
78516;SHT31;67815;51.990;5.688;2023-07-13T16:05:38;24.5;47.6
78516;SHT31;67815;51.990;5.688;2023-07-13T16:08:19;24.5;48.3
78516;SHT31;67815;51.990;5.688;2023-07-13T16:10:51;24.6;46.7
78516;SHT31;67815;51.990;5.688;2023-07-13T16:13:21;24.6;45.4
78516;SHT31;67815;51.990;5.688;2023-07-13T16:15:52;24.6;45.6
78516;SHT31;67815;51.990;5.688;2023-07-13T16:18:24;24.7;45.4
78516;SHT31;67815;51.990;5.688;2023-07-13T16:20:54;24.7;45.6
78516;SHT31;67815;51.990;5.688;2023-07-13T16:23:26;24.7;46.7
78516;SHT31;67815;51.990;5.688;2023-07-13T16:25:57;24.7;44.1
78516;SHT31;67815;51.990;5.688;2023-07-13T16:28:27;24.7;44.2
78516;SHT31;67815;51.990;5.688;2023-07-13T16:30:58;24.7;43.7
78516;SHT31;67815;51.990;5.688;2023-07-13T16:33:29;24.7;45.4